sensor_id;sensor_type;location;lat;lon;timestamp;temperature;humidity
820;DHT22;392;48.838;2.322;2022-10-16T00:01:18;16.60;87.90
820;DHT22;392;48.838;2.322;2022-10-16T00:03:48;16.60;88.40
820;DHT22;392;48.838;2.322;2022-10-16T00:06:17;16.50;88.90
820;DHT22;392;48.838;2.322;2022-10-16T00:08:46;16.50;89.30
820;DHT22;392;48.838;2.322;2022-10-16T00:11:15;16.50;89.00
820;DHT22;392;48.838;2.322;2022-10-16T00:13:46;16.40;89.30
820;DHT22;392;48.838;2.322;2022-10-16T00:16:15;16.40;89.90
820;DHT22;392;48.838;2.322;2022-10-16T00:18:43;16.40;90.00
820;DHT22;392;48.838;2.322;2022-10-16T00:21:13;16.40;90.40
820;DHT22;392;48.838;2.322;2022-10-16T00:24:01;16.40;90.20
820;DHT22;392;48.838;2.322;2022-10-16T00:26:32;16.40;90.20
820;DHT22;392;48.838;2.322;2022-10-16T00:29:02;16.40;90.30
820;DHT22;392;48.838;2.322;2022-10-16T00:31:29;16.40;90.20
820;DHT22;392;48.838;2.322;2022-10-16T00:33:57;16.40;90.20
820;DHT22;392;48.838;2.322;2022-10-16T00:36:25;16.40;90.30
820;DHT22;392;48.838;2.322;2022-10-16T00:38:54;16.30;90.30
820;DHT22;392;48.838;2.322;2022-10-16T00:41:25;16.40;90.50
820;DHT22;392;48.838;2.322;2022-10-16T00:43:54;16.40;90.40
820;DHT22;392;48.838;2.322;2022-10-16T00:46:26;16.50;90.30
820;DHT22;392;48.838;2.322;2022-10-16T00:49:00;16.50;90.30
820;DHT22;392;48.838;2.322;2022-10-16T00:51:32;16.50;90.20
820;DHT22;392;48.838;2.322;2022-10-16T00:54:02;16.50;90.00
820;DHT22;392;48.838;2.322;2022-10-16T00:56:32;16.50;89.70
820;DHT22;392;48.838;2.322;2022-10-16T00:59:01;16.50;89.90
820;DHT22;392;48.838;2.322;2022-10-16T01:01:32;16.50;89.50
820;DHT22;392;48.838;2.322;2022-10-16T01:03:59;16.40;89.30
820;DHT22;392;48.838;2.322;2022-10-16T01:06:35;16.40;90.20
820;DHT22;392;48.838;2.322;2022-10-16T01:09:11;16.40;90.40
820;DHT22;392;48.838;2.322;2022-10-16T01:11:47;16.40;90.40
820;DHT22;392;48.838;2.322;2022-10-16T01:14:24;16.40;90.40
820;DHT22;392;48.838;2.322;2022-10-16T01:17:00;16.40;90.50
820;DHT22;392;48.838;2.322;2022-10-16T01:19:44;16.40;90.40
820;DHT22;392;48.838;2.322;2022-10-16T01:22:33;16.40;90.40
820;DHT22;392;48.838;2.322;2022-10-16T01:25:09;16.40;90.30
820;DHT22;392;48.838;2.322;2022-10-16T01:27:42;16.40;90.20
820;DHT22;392;48.838;2.322;2022-10-16T01:30:17;16.50;90.10
820;DHT22;392;48.838;2.322;2022-10-16T01:32:52;16.40;89.20
820;DHT22;392;48.838;2.322;2022-10-16T01:35:26;16.40;88.70
820;DHT22;392;48.838;2.322;2022-10-16T01:37:59;16.40;87.70
820;DHT22;392;48.838;2.322;2022-10-16T01:40:31;16.40;88.60
820;DHT22;392;48.838;2.322;2022-10-16T01:43:04;16.50;88.10
820;DHT22;392;48.838;2.322;2022-10-16T01:45:33;16.50;87.70
820;DHT22;392;48.838;2.322;2022-10-16T01:48:02;16.50;86.70
820;DHT22;392;48.838;2.322;2022-10-16T01:50:36;16.50;86.70
820;DHT22;392;48.838;2.322;2022-10-16T01:53:07;16.50;85.70
820;DHT22;392;48.838;2.322;2022-10-16T01:55:38;16.50;85.30
820;DHT22;392;48.838;2.322;2022-10-16T01:58:13;16.50;85.00
820;DHT22;392;48.838;2.322;2022-10-16T02:00:44;16.50;85.10
820;DHT22;392;48.838;2.322;2022-10-16T02:03:16;16.40;85.20
820;DHT22;392;48.838;2.322;2022-10-16T02:05:47;16.40;85.50
820;DHT22;392;48.838;2.322;2022-10-16T02:08:16;16.40;85.80
820;DHT22;392;48.838;2.322;2022-10-16T02:10:44;16.40;86.00
820;DHT22;392;48.838;2.322;2022-10-16T02:13:15;16.40;86.00
820;DHT22;392;48.838;2.322;2022-10-16T02:15:44;16.40;85.90
820;DHT22;392;48.838;2.322;2022-10-16T02:18:12;16.40;85.80
820;DHT22;392;48.838;2.322;2022-10-16T02:20:44;16.40;85.10
820;DHT22;392;48.838;2.322;2022-10-16T02:23:24;16.50;84.90
820;DHT22;392;48.838;2.322;2022-10-16T02:25:59;16.40;84.40
820;DHT22;392;48.838;2.322;2022-10-16T02:28:32;16.40;83.40
820;DHT22;392;48.838;2.322;2022-10-16T02:31:04;16.40;83.40
820;DHT22;392;48.838;2.322;2022-10-16T02:33:35;16.40;81.80
820;DHT22;392;48.838;2.322;2022-10-16T02:36:04;16.30;81.80
820;DHT22;392;48.838;2.322;2022-10-16T02:38:32;16.40;81.90
820;DHT22;392;48.838;2.322;2022-10-16T02:41:00;16.30;81.20
820;DHT22;392;48.838;2.322;2022-10-16T02:43:28;16.30;80.80
820;DHT22;392;48.838;2.322;2022-10-16T02:45:56;16.30;80.10
820;DHT22;392;48.838;2.322;2022-10-16T02:48:23;16.20;80.00
820;DHT22;392;48.838;2.322;2022-10-16T02:50:50;16.20;80.50
820;DHT22;392;48.838;2.322;2022-10-16T02:53:18;16.20;80.60
820;DHT22;392;48.838;2.322;2022-10-16T02:55:45;16.30;80.30
820;DHT22;392;48.838;2.322;2022-10-16T02:58:12;16.20;80.10
820;DHT22;392;48.838;2.322;2022-10-16T03:00:41;16.20;80.20
820;DHT22;392;48.838;2.322;2022-10-16T03:03:08;16.20;80.70
820;DHT22;392;48.838;2.322;2022-10-16T03:05:36;16.30;81.60
820;DHT22;392;48.838;2.322;2022-10-16T03:08:03;16.30;80.30
820;DHT22;392;48.838;2.322;2022-10-16T03:10:31;16.20;78.80
820;DHT22;392;48.838;2.322;2022-10-16T03:12:59;16.30;79.20
820;DHT22;392;48.838;2.322;2022-10-16T03:15:26;16.30;79.10
820;DHT22;392;48.838;2.322;2022-10-16T03:17:57;16.30;78.40
820;DHT22;392;48.838;2.322;2022-10-16T03:20:25;16.30;77.80
820;DHT22;392;48.838;2.322;2022-10-16T03:22:52;16.30;77.80
820;DHT22;392;48.838;2.322;2022-10-16T03:25:20;16.30;76.80
820;DHT22;392;48.838;2.322;2022-10-16T03:27:47;16.30;76.80
820;DHT22;392;48.838;2.322;2022-10-16T03:30:14;16.30;76.80
820;DHT22;392;48.838;2.322;2022-10-16T03:32:43;16.20;77.70
820;DHT22;392;48.838;2.322;2022-10-16T03:35:12;16.20;76.40
820;DHT22;392;48.838;2.322;2022-10-16T03:37:39;16.20;76.80
820;DHT22;392;48.838;2.322;2022-10-16T03:40:07;16.20;77.60
820;DHT22;392;48.838;2.322;2022-10-16T03:42:35;16.20;77.20
820;DHT22;392;48.838;2.322;2022-10-16T03:45:03;16.20;76.20
820;DHT22;392;48.838;2.322;2022-10-16T03:47:31;16.20;76.10
820;DHT22;392;48.838;2.322;2022-10-16T03:49:59;16.20;76.80
820;DHT22;392;48.838;2.322;2022-10-16T03:52:27;16.20;77.70
820;DHT22;392;48.838;2.322;2022-10-16T03:54:55;16.20;77.70
820;DHT22;392;48.838;2.322;2022-10-16T03:57:23;16.20;77.60
820;DHT22;392;48.838;2.322;2022-10-16T03:59:51;16.20;77.50
820;DHT22;392;48.838;2.322;2022-10-16T04:02:18;16.20;76.70
820;DHT22;392;48.838;2.322;2022-10-16T04:04:45;16.10;76.90
820;DHT22;392;48.838;2.322;2022-10-16T04:07:12;16.20;77.40
820;DHT22;392;48.838;2.322;2022-10-16T04:09:41;16.20;76.70
820;DHT22;392;48.838;2.322;2022-10-16T04:12:08;16.30;76.40
820;DHT22;392;48.838;2.322;2022-10-16T04:14:36;16.20;75.70
820;DHT22;392;48.838;2.322;2022-10-16T04:17:03;16.20;75.60
820;DHT22;392;48.838;2.322;2022-10-16T04:19:30;16.20;75.70
820;DHT22;392;48.838;2.322;2022-10-16T04:21:57;16.30;75.50
820;DHT22;392;48.838;2.322;2022-10-16T04:24:25;16.30;76.00
820;DHT22;392;48.838;2.322;2022-10-16T04:26:53;16.30;75.00
820;DHT22;392;48.838;2.322;2022-10-16T04:29:21;16.30;74.90
820;DHT22;392;48.838;2.322;2022-10-16T04:31:48;16.30;74.70
820;DHT22;392;48.838;2.322;2022-10-16T04:34:15;16.30;74.30
820;DHT22;392;48.838;2.322;2022-10-16T04:36:42;16.40;74.40
820;DHT22;392;48.838;2.322;2022-10-16T04:39:10;16.40;74.00
820;DHT22;392;48.838;2.322;2022-10-16T04:41:37;16.40;73.50
820;DHT22;392;48.838;2.322;2022-10-16T04:44:05;16.40;73.40
820;DHT22;392;48.838;2.322;2022-10-16T04:46:33;16.40;72.70
820;DHT22;392;48.838;2.322;2022-10-16T04:49:00;16.40;73.20
820;DHT22;392;48.838;2.322;2022-10-16T04:51:27;16.40;72.70
820;DHT22;392;48.838;2.322;2022-10-16T04:53:55;16.40;72.80
820;DHT22;392;48.838;2.322;2022-10-16T04:56:22;16.50;72.70
820;DHT22;392;48.838;2.322;2022-10-16T04:58:50;16.40;72.90
820;DHT22;392;48.838;2.322;2022-10-16T05:01:18;16.40;73.10
820;DHT22;392;48.838;2.322;2022-10-16T05:03:45;16.40;73.40
820;DHT22;392;48.838;2.322;2022-10-16T05:06:13;16.40;73.40
820;DHT22;392;48.838;2.322;2022-10-16T05:08:40;16.40;73.30
820;DHT22;392;48.838;2.322;2022-10-16T05:11:07;16.40;73.90
820;DHT22;392;48.838;2.322;2022-10-16T05:13:34;16.40;73.40
820;DHT22;392;48.838;2.322;2022-10-16T05:16:02;16.40;73.40
820;DHT22;392;48.838;2.322;2022-10-16T05:18:30;16.40;73.40
820;DHT22;392;48.838;2.322;2022-10-16T05:20:58;16.40;73.40
820;DHT22;392;48.838;2.322;2022-10-16T05:23:25;16.40;73.40
820;DHT22;392;48.838;2.322;2022-10-16T05:25:53;16.50;74.00
820;DHT22;392;48.838;2.322;2022-10-16T05:28:21;16.40;72.80
820;DHT22;392;48.838;2.322;2022-10-16T05:30:48;16.40;72.90
820;DHT22;392;48.838;2.322;2022-10-16T05:33:16;16.40;72.80
820;DHT22;392;48.838;2.322;2022-10-16T05:35:45;16.40;73.00
820;DHT22;392;48.838;2.322;2022-10-16T05:38:12;16.40;74.00
820;DHT22;392;48.838;2.322;2022-10-16T05:40:39;16.40;73.40
820;DHT22;392;48.838;2.322;2022-10-16T05:43:07;16.40;73.40
820;DHT22;392;48.838;2.322;2022-10-16T05:45:34;16.40;73.70
820;DHT22;392;48.838;2.322;2022-10-16T05:48:01;16.30;74.40
820;DHT22;392;48.838;2.322;2022-10-16T05:50:29;16.30;75.10
820;DHT22;392;48.838;2.322;2022-10-16T05:52:57;16.20;75.40
820;DHT22;392;48.838;2.322;2022-10-16T05:55:24;16.20;75.90
820;DHT22;392;48.838;2.322;2022-10-16T05:57:54;16.20;76.00
820;DHT22;392;48.838;2.322;2022-10-16T06:00:21;16.20;76.30
820;DHT22;392;48.838;2.322;2022-10-16T06:02:49;16.20;76.40
820;DHT22;392;48.838;2.322;2022-10-16T06:05:16;16.30;76.30
820;DHT22;392;48.838;2.322;2022-10-16T06:07:43;16.30;76.10
820;DHT22;392;48.838;2.322;2022-10-16T06:10:11;16.30;75.50
820;DHT22;392;48.838;2.322;2022-10-16T06:12:39;16.30;75.70
820;DHT22;392;48.838;2.322;2022-10-16T06:15:07;16.20;75.90
820;DHT22;392;48.838;2.322;2022-10-16T06:17:34;16.20;76.10
820;DHT22;392;48.838;2.322;2022-10-16T06:20:02;16.20;76.60
820;DHT22;392;48.838;2.322;2022-10-16T06:22:29;16.30;77.40
820;DHT22;392;48.838;2.322;2022-10-16T06:24:56;16.20;77.10
820;DHT22;392;48.838;2.322;2022-10-16T06:27:25;16.20;77.70
820;DHT22;392;48.838;2.322;2022-10-16T06:29:52;16.20;77.70
820;DHT22;392;48.838;2.322;2022-10-16T06:32:20;16.20;77.70
820;DHT22;392;48.838;2.322;2022-10-16T06:34:47;16.10;78.60
820;DHT22;392;48.838;2.322;2022-10-16T06:37:14;16.10;79.30
820;DHT22;392;48.838;2.322;2022-10-16T06:39:42;16.10;79.60
820;DHT22;392;48.838;2.322;2022-10-16T06:42:09;16.20;79.70
820;DHT22;392;48.838;2.322;2022-10-16T06:44:37;16.10;79.70
820;DHT22;392;48.838;2.322;2022-10-16T06:47:05;16.20;80.20
820;DHT22;392;48.838;2.322;2022-10-16T06:49:33;16.20;80.30
820;DHT22;392;48.838;2.322;2022-10-16T06:52:00;16.20;80.50
820;DHT22;392;48.838;2.322;2022-10-16T06:54:28;16.20;80.10
820;DHT22;392;48.838;2.322;2022-10-16T06:56:55;16.30;80.20
820;DHT22;392;48.838;2.322;2022-10-16T06:59:23;16.30;79.80
820;DHT22;392;48.838;2.322;2022-10-16T07:01:51;16.40;79.20
820;DHT22;392;48.838;2.322;2022-10-16T07:04:19;16.40;78.50
820;DHT22;392;48.838;2.322;2022-10-16T07:06:46;16.50;78.00
820;DHT22;392;48.838;2.322;2022-10-16T07:09:13;16.50;77.00
820;DHT22;392;48.838;2.322;2022-10-16T07:11:40;16.50;76.70
820;DHT22;392;48.838;2.322;2022-10-16T07:16:42;16.50;77.10
820;DHT22;392;48.838;2.322;2022-10-16T07:19:11;16.60;76.60
820;DHT22;392;48.838;2.322;2022-10-16T07:21:40;16.60;75.90
820;DHT22;392;48.838;2.322;2022-10-16T07:24:12;16.70;75.80
820;DHT22;392;48.838;2.322;2022-10-16T07:26:40;16.70;75.80
820;DHT22;392;48.838;2.322;2022-10-16T07:29:13;16.80;75.00
820;DHT22;392;48.838;2.322;2022-10-16T07:31:40;16.80;73.80
820;DHT22;392;48.838;2.322;2022-10-16T07:34:08;16.80;73.80
820;DHT22;392;48.838;2.322;2022-10-16T07:36:38;16.90;73.40
820;DHT22;392;48.838;2.322;2022-10-16T07:39:05;16.90;73.10
820;DHT22;392;48.838;2.322;2022-10-16T07:41:32;16.90;73.40
820;DHT22;392;48.838;2.322;2022-10-16T07:44:03;16.90;73.50
820;DHT22;392;48.838;2.322;2022-10-16T07:46:30;16.90;73.90
820;DHT22;392;48.838;2.322;2022-10-16T07:48:59;17.00;74.00
820;DHT22;392;48.838;2.322;2022-10-16T07:51:28;17.00;73.30
820;DHT22;392;48.838;2.322;2022-10-16T07:53:55;17.10;72.90
820;DHT22;392;48.838;2.322;2022-10-16T07:56:23;17.10;73.10
820;DHT22;392;48.838;2.322;2022-10-16T07:58:50;17.10;72.20
820;DHT22;392;48.838;2.322;2022-10-16T08:01:18;17.10;71.90
820;DHT22;392;48.838;2.322;2022-10-16T08:03:47;17.20;70.90
820;DHT22;392;48.838;2.322;2022-10-16T08:06:15;17.30;69.70
820;DHT22;392;48.838;2.322;2022-10-16T08:08:44;17.40;69.70
820;DHT22;392;48.838;2.322;2022-10-16T08:11:11;17.50;69.00
820;DHT22;392;48.838;2.322;2022-10-16T08:13:39;17.50;67.20
820;DHT22;392;48.838;2.322;2022-10-16T08:16:07;17.50;68.60
820;DHT22;392;48.838;2.322;2022-10-16T08:18:35;17.70;69.10
820;DHT22;392;48.838;2.322;2022-10-16T08:21:03;17.70;65.60
820;DHT22;392;48.838;2.322;2022-10-16T08:23:31;17.80;66.40
820;DHT22;392;48.838;2.322;2022-10-16T08:26:05;18.00;66.20
820;DHT22;392;48.838;2.322;2022-10-16T08:28:34;18.10;64.10
820;DHT22;392;48.838;2.322;2022-10-16T08:31:08;18.20;63.00
820;DHT22;392;48.838;2.322;2022-10-16T08:33:37;18.30;63.20
820;DHT22;392;48.838;2.322;2022-10-16T08:36:05;18.40;60.50
820;DHT22;392;48.838;2.322;2022-10-16T08:38:33;18.40;59.80
820;DHT22;392;48.838;2.322;2022-10-16T08:41:17;18.40;60.00
820;DHT22;392;48.838;2.322;2022-10-16T08:44:10;18.40;60.00
820;DHT22;392;48.838;2.322;2022-10-16T08:46:51;18.40;59.90
820;DHT22;392;48.838;2.322;2022-10-16T08:49:27;18.30;60.70
820;DHT22;392;48.838;2.322;2022-10-16T08:51:56;18.30;61.20
820;DHT22;392;48.838;2.322;2022-10-16T08:54:29;18.40;60.20
820;DHT22;392;48.838;2.322;2022-10-16T08:57:09;18.50;59.80
820;DHT22;392;48.838;2.322;2022-10-16T08:59:38;18.60;59.00
820;DHT22;392;48.838;2.322;2022-10-16T09:02:24;18.60;57.60
820;DHT22;392;48.838;2.322;2022-10-16T09:05:17;18.70;57.50
820;DHT22;392;48.838;2.322;2022-10-16T09:07:58;18.70;57.40
820;DHT22;392;48.838;2.322;2022-10-16T09:10:38;18.70;58.20
820;DHT22;392;48.838;2.322;2022-10-16T09:13:18;18.70;58.30
820;DHT22;392;48.838;2.322;2022-10-16T09:15:55;18.70;59.00
820;DHT22;392;48.838;2.322;2022-10-16T09:18:31;18.80;59.20
820;DHT22;392;48.838;2.322;2022-10-16T09:21:06;19.00;58.60
820;DHT22;392;48.838;2.322;2022-10-16T09:23:37;19.10;57.30
820;DHT22;392;48.838;2.322;2022-10-16T09:26:06;19.10;56.20
820;DHT22;392;48.838;2.322;2022-10-16T09:28:39;19.10;55.30
820;DHT22;392;48.838;2.322;2022-10-16T09:31:13;19.00;55.20
820;DHT22;392;48.838;2.322;2022-10-16T09:33:44;18.90;55.00
820;DHT22;392;48.838;2.322;2022-10-16T09:36:13;19.00;56.30
820;DHT22;392;48.838;2.322;2022-10-16T09:38:40;19.10;55.20
820;DHT22;392;48.838;2.322;2022-10-16T09:41:15;19.20;52.60
820;DHT22;392;48.838;2.322;2022-10-16T09:43:51;19.30;51.40
820;DHT22;392;48.838;2.322;2022-10-16T09:46:25;19.50;52.20
820;DHT22;392;48.838;2.322;2022-10-16T09:48:55;19.70;51.30
820;DHT22;392;48.838;2.322;2022-10-16T09:51:25;19.70;50.20
820;DHT22;392;48.838;2.322;2022-10-16T09:53:56;19.50;51.50
820;DHT22;392;48.838;2.322;2022-10-16T09:56:26;19.70;52.30
820;DHT22;392;48.838;2.322;2022-10-16T09:58:57;19.70;49.60
820;DHT22;392;48.838;2.322;2022-10-16T10:01:30;19.70;49.00
820;DHT22;392;48.838;2.322;2022-10-16T10:04:03;19.90;48.80
820;DHT22;392;48.838;2.322;2022-10-16T10:06:33;20.10;47.70
820;DHT22;392;48.838;2.322;2022-10-16T10:09:06;20.20;46.40
820;DHT22;392;48.838;2.322;2022-10-16T10:11:48;20.30;45.10
820;DHT22;392;48.838;2.322;2022-10-16T10:14:27;20.40;45.20
820;DHT22;392;48.838;2.322;2022-10-16T10:17:10;20.40;44.00
820;DHT22;392;48.838;2.322;2022-10-16T10:19:41;20.40;43.40
820;DHT22;392;48.838;2.322;2022-10-16T10:22:38;20.30;44.60
820;DHT22;392;48.838;2.322;2022-10-16T10:25:37;20.50;43.70
820;DHT22;392;48.838;2.322;2022-10-16T10:28:50;20.70;43.40
820;DHT22;392;48.838;2.322;2022-10-16T10:31:27;20.80;41.40
820;DHT22;392;48.838;2.322;2022-10-16T10:34:01;20.90;40.50
820;DHT22;392;48.838;2.322;2022-10-16T10:36:37;20.90;40.90
820;DHT22;392;48.838;2.322;2022-10-16T10:39:08;20.90;40.40
820;DHT22;392;48.838;2.322;2022-10-16T10:41:59;20.80;40.70
820;DHT22;392;48.838;2.322;2022-10-16T10:44:49;20.70;40.70
820;DHT22;392;48.838;2.322;2022-10-16T10:47:30;20.70;42.00
820;DHT22;392;48.838;2.322;2022-10-16T10:50:10;20.70;41.50
820;DHT22;392;48.838;2.322;2022-10-16T10:52:47;20.70;42.00
820;DHT22;392;48.838;2.322;2022-10-16T10:55:24;20.70;42.40
820;DHT22;392;48.838;2.322;2022-10-16T11:01:12;20.50;43.70
820;DHT22;392;48.838;2.322;2022-10-16T11:04:00;20.50;44.20
820;DHT22;392;48.838;2.322;2022-10-16T11:06:46;20.50;44.80
820;DHT22;392;48.838;2.322;2022-10-16T11:09:18;20.40;45.70
820;DHT22;392;48.838;2.322;2022-10-16T11:11:51;20.20;46.80
820;DHT22;392;48.838;2.322;2022-10-16T11:14:25;19.80;48.40
820;DHT22;392;48.838;2.322;2022-10-16T11:16:59;19.90;50.30
820;DHT22;392;48.838;2.322;2022-10-16T11:19:37;20.10;48.90
820;DHT22;392;48.838;2.322;2022-10-16T11:22:13;20.30;48.50
820;DHT22;392;48.838;2.322;2022-10-16T11:24:47;20.50;47.60
820;DHT22;392;48.838;2.322;2022-10-16T11:27:19;20.60;46.30
820;DHT22;392;48.838;2.322;2022-10-16T11:29:52;20.70;46.20
820;DHT22;392;48.838;2.322;2022-10-16T11:32:27;20.70;44.90
820;DHT22;392;48.838;2.322;2022-10-16T11:35:02;20.50;44.90
820;DHT22;392;48.838;2.322;2022-10-16T11:37:39;20.30;46.40
820;DHT22;392;48.838;2.322;2022-10-16T11:40:19;20.30;46.90
820;DHT22;392;48.838;2.322;2022-10-16T11:42:54;20.40;47.20
820;DHT22;392;48.838;2.322;2022-10-16T11:45:30;20.60;46.60
820;DHT22;392;48.838;2.322;2022-10-16T11:48:03;20.70;45.90
820;DHT22;392;48.838;2.322;2022-10-16T11:50:37;20.80;45.10
820;DHT22;392;48.838;2.322;2022-10-16T11:53:15;21.00;44.20
820;DHT22;392;48.838;2.322;2022-10-16T11:55:46;21.20;42.90
820;DHT22;392;48.838;2.322;2022-10-16T11:58:23;21.50;41.90
820;DHT22;392;48.838;2.322;2022-10-16T12:01:00;21.90;40.50
820;DHT22;392;48.838;2.322;2022-10-16T12:03:35;22.10;38.80
820;DHT22;392;48.838;2.322;2022-10-16T12:06:22;22.20;38.30
820;DHT22;392;48.838;2.322;2022-10-16T12:08:55;22.40;38.10
820;DHT22;392;48.838;2.322;2022-10-16T12:11:34;22.60;37.00
820;DHT22;392;48.838;2.322;2022-10-16T12:14:19;22.70;36.10
820;DHT22;392;48.838;2.322;2022-10-16T12:17:03;22.60;36.10
820;DHT22;392;48.838;2.322;2022-10-16T12:19:58;22.30;36.70
820;DHT22;392;48.838;2.322;2022-10-16T12:22:29;22.10;37.80
820;DHT22;392;48.838;2.322;2022-10-16T12:24:58;21.90;38.80
820;DHT22;392;48.838;2.322;2022-10-16T12:27:29;21.40;40.70
820;DHT22;392;48.838;2.322;2022-10-16T12:29:59;21.10;43.70
820;DHT22;392;48.838;2.322;2022-10-16T12:32:34;20.90;44.60
820;DHT22;392;48.838;2.322;2022-10-16T12:35:03;20.70;46.10
820;DHT22;392;48.838;2.322;2022-10-16T12:37:35;20.70;47.00
820;DHT22;392;48.838;2.322;2022-10-16T12:40:13;20.70;47.70
820;DHT22;392;48.838;2.322;2022-10-16T12:42:41;20.80;48.00
820;DHT22;392;48.838;2.322;2022-10-16T12:45:27;20.80;48.00
820;DHT22;392;48.838;2.322;2022-10-16T12:47:57;20.80;48.40
820;DHT22;392;48.838;2.322;2022-10-16T12:50:32;20.70;48.90
820;DHT22;392;48.838;2.322;2022-10-16T12:53:15;20.80;49.60
820;DHT22;392;48.838;2.322;2022-10-16T12:55:52;20.90;49.10
820;DHT22;392;48.838;2.322;2022-10-16T12:58:36;20.90;48.60
820;DHT22;392;48.838;2.322;2022-10-16T13:01:21;20.90;49.10
820;DHT22;392;48.838;2.322;2022-10-16T13:04:08;21.00;49.20
820;DHT22;392;48.838;2.322;2022-10-16T13:06:53;21.10;49.10
820;DHT22;392;48.838;2.322;2022-10-16T13:09:40;21.20;48.60
820;DHT22;392;48.838;2.322;2022-10-16T13:12:24;21.10;48.40
820;DHT22;392;48.838;2.322;2022-10-16T13:15:27;21.00;49.20
820;DHT22;392;48.838;2.322;2022-10-16T13:18:06;21.10;51.50
820;DHT22;392;48.838;2.322;2022-10-16T13:20:51;21.50;48.30
820;DHT22;392;48.838;2.322;2022-10-16T13:23:27;21.80;46.40
820;DHT22;392;48.838;2.322;2022-10-16T13:26:09;21.90;46.70
820;DHT22;392;48.838;2.322;2022-10-16T13:28:42;22.30;45.30
820;DHT22;392;48.838;2.322;2022-10-16T13:31:14;22.80;42.90
820;DHT22;392;48.838;2.322;2022-10-16T13:33:47;22.90;40.80
820;DHT22;392;48.838;2.322;2022-10-16T13:36:20;22.80;41.10
820;DHT22;392;48.838;2.322;2022-10-16T13:39:00;22.50;42.50
820;DHT22;392;48.838;2.322;2022-10-16T13:41:35;22.30;43.30
820;DHT22;392;48.838;2.322;2022-10-16T13:44:03;22.10;44.50
820;DHT22;392;48.838;2.322;2022-10-16T13:46:31;22.00;45.40
820;DHT22;392;48.838;2.322;2022-10-16T13:49:02;22.00;45.80
820;DHT22;392;48.838;2.322;2022-10-16T13:51:31;22.00;45.90
820;DHT22;392;48.838;2.322;2022-10-16T13:53:59;22.00;46.40
820;DHT22;392;48.838;2.322;2022-10-16T13:56:28;22.00;46.60
820;DHT22;392;48.838;2.322;2022-10-16T13:59:03;21.90;46.90
820;DHT22;392;48.838;2.322;2022-10-16T14:01:32;21.80;47.70
820;DHT22;392;48.838;2.322;2022-10-16T14:04:02;21.80;47.60
820;DHT22;392;48.838;2.322;2022-10-16T14:06:32;21.90;47.50
820;DHT22;392;48.838;2.322;2022-10-16T14:09:04;21.90;47.40
820;DHT22;392;48.838;2.322;2022-10-16T14:11:34;21.80;47.30
820;DHT22;392;48.838;2.322;2022-10-16T14:14:11;21.80;47.60
820;DHT22;392;48.838;2.322;2022-10-16T14:16:41;21.80;47.80
820;DHT22;392;48.838;2.322;2022-10-16T14:19:18;21.90;48.20
820;DHT22;392;48.838;2.322;2022-10-16T14:21:47;21.90;48.00
820;DHT22;392;48.838;2.322;2022-10-16T14:24:25;22.00;47.70
820;DHT22;392;48.838;2.322;2022-10-16T14:26:54;22.00;47.50
820;DHT22;392;48.838;2.322;2022-10-16T14:29:24;22.10;48.00
820;DHT22;392;48.838;2.322;2022-10-16T14:31:56;22.10;47.30
820;DHT22;392;48.838;2.322;2022-10-16T14:34:26;22.20;46.90
820;DHT22;392;48.838;2.322;2022-10-16T14:36:57;22.10;47.10
820;DHT22;392;48.838;2.322;2022-10-16T14:39:26;22.00;47.80
820;DHT22;392;48.838;2.322;2022-10-16T14:41:57;22.00;48.30
820;DHT22;392;48.838;2.322;2022-10-16T14:44:31;22.00;49.20
820;DHT22;392;48.838;2.322;2022-10-16T14:47:07;22.00;49.20
820;DHT22;392;48.838;2.322;2022-10-16T14:49:36;22.00;49.10
820;DHT22;392;48.838;2.322;2022-10-16T14:52:08;22.00;49.30
820;DHT22;392;48.838;2.322;2022-10-16T14:54:36;22.00;49.60
820;DHT22;392;48.838;2.322;2022-10-16T14:57:04;22.00;49.70
820;DHT22;392;48.838;2.322;2022-10-16T14:59:36;21.80;50.00
820;DHT22;392;48.838;2.322;2022-10-16T15:02:18;21.70;50.70
820;DHT22;392;48.838;2.322;2022-10-16T15:04:49;21.70;51.50
820;DHT22;392;48.838;2.322;2022-10-16T15:07:17;21.60;52.20
820;DHT22;392;48.838;2.322;2022-10-16T15:09:44;21.60;52.90
820;DHT22;392;48.838;2.322;2022-10-16T15:12:11;21.50;53.70
820;DHT22;392;48.838;2.322;2022-10-16T15:14:40;21.40;54.50
820;DHT22;392;48.838;2.322;2022-10-16T15:17:08;21.50;54.60
820;DHT22;392;48.838;2.322;2022-10-16T15:19:37;21.50;54.60
820;DHT22;392;48.838;2.322;2022-10-16T15:22:04;21.60;54.70
820;DHT22;392;48.838;2.322;2022-10-16T15:24:32;21.60;54.60
820;DHT22;392;48.838;2.322;2022-10-16T15:26:59;21.60;54.50
820;DHT22;392;48.838;2.322;2022-10-16T15:29:27;21.60;54.60
820;DHT22;392;48.838;2.322;2022-10-16T15:31:55;21.60;54.70
820;DHT22;392;48.838;2.322;2022-10-16T15:34:22;21.60;54.80
820;DHT22;392;48.838;2.322;2022-10-16T15:36:50;21.50;55.40
820;DHT22;392;48.838;2.322;2022-10-16T15:39:19;21.50;55.80
820;DHT22;392;48.838;2.322;2022-10-16T15:41:47;21.50;57.00
820;DHT22;392;48.838;2.322;2022-10-16T15:44:16;21.50;57.30
820;DHT22;392;48.838;2.322;2022-10-16T15:46:44;21.50;56.50
820;DHT22;392;48.838;2.322;2022-10-16T15:49:12;21.50;56.70
820;DHT22;392;48.838;2.322;2022-10-16T15:51:41;21.60;56.80
820;DHT22;392;48.838;2.322;2022-10-16T15:54:09;21.50;57.20
820;DHT22;392;48.838;2.322;2022-10-16T15:56:36;21.40;58.00
820;DHT22;392;48.838;2.322;2022-10-16T15:59:04;21.40;58.70
820;DHT22;392;48.838;2.322;2022-10-16T16:01:34;21.30;59.30
820;DHT22;392;48.838;2.322;2022-10-16T16:04:03;21.30;59.30
820;DHT22;392;48.838;2.322;2022-10-16T16:06:32;21.30;59.50
820;DHT22;392;48.838;2.322;2022-10-16T16:09:00;21.30;59.60
820;DHT22;392;48.838;2.322;2022-10-16T16:11:27;21.40;60.00
820;DHT22;392;48.838;2.322;2022-10-16T16:13:55;21.40;60.10
820;DHT22;392;48.838;2.322;2022-10-16T16:16:23;21.40;60.30
820;DHT22;392;48.838;2.322;2022-10-16T16:18:53;21.40;60.40
820;DHT22;392;48.838;2.322;2022-10-16T16:21:21;21.40;60.50
820;DHT22;392;48.838;2.322;2022-10-16T16:23:49;21.30;60.80
820;DHT22;392;48.838;2.322;2022-10-16T16:26:23;21.30;61.30
820;DHT22;392;48.838;2.322;2022-10-16T16:28:52;21.30;62.00
820;DHT22;392;48.838;2.322;2022-10-16T16:31:24;21.20;62.70
820;DHT22;392;48.838;2.322;2022-10-16T16:33:51;21.20;63.40
820;DHT22;392;48.838;2.322;2022-10-16T16:36:19;21.10;63.90
820;DHT22;392;48.838;2.322;2022-10-16T16:38:46;21.10;63.90
820;DHT22;392;48.838;2.322;2022-10-16T16:41:18;21.00;64.60
820;DHT22;392;48.838;2.322;2022-10-16T16:43:46;21.00;65.10
820;DHT22;392;48.838;2.322;2022-10-16T16:46:14;21.00;65.70
820;DHT22;392;48.838;2.322;2022-10-16T16:48:42;20.90;66.00
820;DHT22;392;48.838;2.322;2022-10-16T16:51:11;20.90;66.80
820;DHT22;392;48.838;2.322;2022-10-16T16:53:44;20.90;67.40
820;DHT22;392;48.838;2.322;2022-10-16T16:56:12;20.90;67.90
820;DHT22;392;48.838;2.322;2022-10-16T16:58:45;20.80;68.30
820;DHT22;392;48.838;2.322;2022-10-16T17:01:13;20.80;68.70
820;DHT22;392;48.838;2.322;2022-10-16T17:03:43;20.80;69.10
820;DHT22;392;48.838;2.322;2022-10-16T17:06:12;20.80;69.40
820;DHT22;392;48.838;2.322;2022-10-16T17:08:41;20.80;69.40